Darstellungsparameter: Aktuell verwendete Einstellungen:
Skalierung der Graphiken ... ?
xyx+y,   Skalierungsfaktor:      Skalierung: Modus: x, Faktor: 1
Darstellungszeitraum ... ?
Vom - - bis: - -   Zeitraum: 25.04.2010 - 27.04.2010
Min/Max/Avg-Anzeige ... ?
Zeige MMA aktuell
Zeige MMA Monat
Zeige MMA alles
Zeige --A aktuell
Zeige --A Monat
Zeige --A alles
Keine MMA-Anzeige
MMA:
Average (ber die Originaldaten)
MMA-Basis: 25.04.2010 - 27.04.2010
Quicknavigation für Darstellung... ?
Tage:      1T, 2T, 3T, 5T -1T -2T -3T -5T +1T +2T +3T +5T
Wochen: 1W, 2W, 3W -1W -2W -3W +1W +2W +3W
Monate: 1M, 3M, 6M -1M -3M -6M +1M +3M +6M
Jahre:    1J, 3J, 5J, 10J -1J -3J -5J -10J +1J +3J +5J +10J
Nutze für die Darstellung ... ?
Originaldaten oder Mittelwerte auf ...
Stundenbasis Tagesbasis Wochenbasis
Monatsbasis Jahresbasis      Datenbasis: Original-Daten
Darstellen als:
Statistik (Auto) Statistik J:M      Darstellung:
Zur Graphik,    zurück zur Übersicht aller Sensoren.
 
Tabellarische Datenbersicht: ?
 
Sensor: Nr:Datum:Temp:Abs-Feuchte:Windchill:Wind:
Aussen-T/F 1 25-04-2010 00:11:04 13.1 C 3.88 g/m*3 13.1 C 0 km/h
2 25-04-2010 00:23:04 12.8 C 3.92 g/m*3 12.8 C 0 km/h
3 25-04-2010 00:35:04 12.7 C 4.01 g/m*3 12.7 C 0 km/h
4 25-04-2010 00:47:04 12.2 C 3.99 g/m*3 12.2 C 0 km/h
5 25-04-2010 00:59:04 12.1 C 4.18 g/m*3 12.1 C 0 km/h
6 25-04-2010 01:11:04 11.8 C 4.32 g/m*3 11.8 C 0 km/h
7 25-04-2010 01:23:04 11.4 C 4.21 g/m*3 11.4 C 0 km/h
8 25-04-2010 01:35:04 11.1 C 4.13 g/m*3 11.1 C 0 km/h
9 25-04-2010 01:47:04 11 C 4.2 g/m*3 11 C 0 km/h
10 25-04-2010 01:59:04 10.7 C 4.42 g/m*3 10.7 C 0 km/h
11 25-04-2010 02:11:04 10.5 C 4.27 g/m*3 10.5 C 0 km/h
12 25-04-2010 02:23:04 10.4 C 4.34 g/m*3 10.4 C 0 km/h
13 25-04-2010 02:35:04 10.1 C 4.26 g/m*3 10.1 C 0 km/h
14 25-04-2010 02:47:04 9.9 C 4.2 g/m*3 9.9 C 0 km/h
15 25-04-2010 02:59:04 9.7 C 4.24 g/m*3 9.7 C 0 km/h
16 25-04-2010 03:11:04 9.3 C 4.22 g/m*3 9.3 C 0 km/h
17 25-04-2010 03:23:04 9.1 C 4.26 g/m*3 9.1 C 0 km/h
18 25-04-2010 03:35:04 9 C 4.23 g/m*3 9 C 0 km/h
19 25-04-2010 03:47:04 8.7 C 4.32 g/m*3 8.7 C 0 km/h
20 25-04-2010 03:59:05 8.5 C 4.44 g/m*3 8.5 C 0 km/h
21 25-04-2010 04:11:05 8 C 4.55 g/m*3 8 C 0 km/h
22 25-04-2010 04:23:05 8 C 4.55 g/m*3 8 C 0 km/h
23 25-04-2010 04:35:05 7.8 C 4.49 g/m*3 7.8 C 0 km/h
24 25-04-2010 04:47:05 7.7 C 4.54 g/m*3 7.7 C 0 km/h
25 25-04-2010 04:59:05 7.6 C 4.51 g/m*3 7.6 C 0 km/h
Sensor: Nr:Datum:Temp:Abs-Feuchte:Windchill:Wind:
Aussen-T/F 26 25-04-2010 05:11:05 7.5 C 4.48 g/m*3 7.5 C 0 km/h
27 25-04-2010 05:23:05 7.2 C 4.4 g/m*3 7.2 C 0 km/h
28 25-04-2010 05:35:05 7 C 4.49 g/m*3 7 C 0 km/h
29 25-04-2010 05:47:05 6.8 C 4.59 g/m*3 6.8 C 0 km/h
30 25-04-2010 05:59:05 6.7 C 4.56 g/m*3 6.7 C 0 km/h
31 25-04-2010 06:11:05 6.4 C 4.55 g/m*3 6.4 C 0 km/h
32 25-04-2010 06:23:05 6.3 C 4.59 g/m*3 6.3 C 0 km/h
33 25-04-2010 06:35:05 6.2 C 4.63 g/m*3 6.2 C 0 km/h
34 25-04-2010 06:47:05 6.2 C 4.63 g/m*3 6.2 C 0 km/h
35 25-04-2010 06:59:05 6.2 C 4.63 g/m*3 6.2 C 0 km/h
36 25-04-2010 07:11:04 6.2 C 4.63 g/m*3 6.2 C 0 km/h
37 25-04-2010 07:23:03 6.3 C 4.74 g/m*3 6.3 C 0 km/h
38 25-04-2010 07:35:03 6.5 C 4.8 g/m*3 6.5 C 0 km/h
39 25-04-2010 07:47:02 6.6 C 4.91 g/m*3 6.6 C 0 km/h
40 25-04-2010 07:59:02 6.7 C 4.86 g/m*3 6.7 C 0 km/h
41 25-04-2010 08:11:01 7 C 4.88 g/m*3 7 C 0 km/h
42 25-04-2010 08:23:02 7.3 C 4.9 g/m*3 7.3 C 0 km/h
43 25-04-2010 08:35:01 7.7 C 4.95 g/m*3 7.7 C 0 km/h
44 25-04-2010 08:47:01 8.1 C 4.99 g/m*3 8.1 C 0 km/h
45 25-04-2010 08:59:01 8.5 C 4.95 g/m*3 8.5 C 0 km/h
46 25-04-2010 09:11:02 9 C 4.94 g/m*3 9 C 0 km/h
47 25-04-2010 09:23:02 9.6 C 4.86 g/m*3 9.6 C 0 km/h
48 25-04-2010 09:35:01 10.4 C 5.01 g/m*3 10.4 C 0 km/h
49 25-04-2010 09:47:02 11.3 C 5.2 g/m*3 11.3 C 0 km/h
50 25-04-2010 09:59:02 12.2 C 5.18 g/m*3 12.2 C 0 km/h
Sensor: Nr:Datum:Temp:Abs-Feuchte:Windchill:Wind:
Aussen-T/F 51 25-04-2010 10:11:01 13.6 C 5.3 g/m*3 13.6 C 0 km/h
52 25-04-2010 10:23:02 14.8 C 5.32 g/m*3 14.8 C 0 km/h
53 25-04-2010 10:35:01 15.9 C 5.28 g/m*3 15.9 C 0 km/h
54 25-04-2010 10:47:03 16.7 C 5.4 g/m*3 16.7 C 0 km/h
55 25-04-2010 10:59:03 17.4 C 5.34 g/m*3 17.4 C 0 km/h
56 25-04-2010 11:11:02 18.8 C 5.31 g/m*3 18.8 C 0 km/h
57 25-04-2010 11:23:02 19.8 C 4.27 g/m*3 19.8 C 0 km/h
58 25-04-2010 11:35:02 20.8 C 3.62 g/m*3 20.8 C 0 km/h
59 25-04-2010 11:47:02 21.2 C 3.71 g/m*3 21.2 C 0 km/h
60 25-04-2010 11:59:02 21.7 C 3.82 g/m*3 21.7 C 0 km/h
61 25-04-2010 12:11:02 22.1 C 3.9 g/m*3 22.1 C 0 km/h
62 25-04-2010 12:23:02 22.5 C 3.99 g/m*3 22.5 C 0 km/h
63 25-04-2010 12:35:02 22.5 C 3.99 g/m*3 22.5 C 0 km/h
64 25-04-2010 12:47:02 22.9 C 4.09 g/m*3 22.9 C 0 km/h
65 25-04-2010 12:59:02 24 C 4.35 g/m*3 24 C 0 km/h
66 25-04-2010 13:11:01 24.4 C 4.45 g/m*3 24.4 C 0 km/h
67 25-04-2010 13:23:02 24.9 C 4.58 g/m*3 24.9 C 0 km/h
68 25-04-2010 13:35:01 24.8 C 4.55 g/m*3 24.8 C 0 km/h
69 25-04-2010 13:47:02 25.2 C 4.66 g/m*3 25.2 C 0 km/h
70 25-04-2010 13:59:02 25.3 C 4.68 g/m*3 25.3 C 0 km/h
71 25-04-2010 14:11:01 25.9 C 4.84 g/m*3 25.9 C 0 km/h
72 25-04-2010 14:23:01 25.8 C 4.82 g/m*3 25.8 C 0 km/h
73 25-04-2010 14:35:01 26.8 C 5.09 g/m*3 26.8 C 0 km/h
74 25-04-2010 14:47:02 26.8 C 5.09 g/m*3 26.8 C 0 km/h
75 25-04-2010 14:59:02 27.4 C 5.26 g/m*3 27.4 C 0 km/h
Sensor: Nr:Datum:Temp:Abs-Feuchte:Windchill:Wind:
Aussen-T/F 76 25-04-2010 15:11:02 28.1 C 5.47 g/m*3 28.1 C 0 km/h
77 25-04-2010 15:23:02 27.8 C 5.38 g/m*3 27.8 C 0 km/h
78 25-04-2010 15:35:02 28.7 C 5.65 g/m*3 28.7 C 0 km/h
79 25-04-2010 15:47:02 28.1 C 5.47 g/m*3 28.1 C 0 km/h
80 25-04-2010 15:59:03 28.5 C 5.59 g/m*3 28.5 C 0 km/h
81 25-04-2010 16:11:01 29.1 C 5.78 g/m*3 29.1 C 0 km/h
82 25-04-2010 16:23:01 28.5 C 5.59 g/m*3 28.5 C 0 km/h
83 25-04-2010 16:35:02 28.5 C 5.59 g/m*3 28.5 C 0 km/h
84 25-04-2010 16:47:02 29.9 C 6.03 g/m*3 29.9 C 0 km/h
85 25-04-2010 16:59:03 30.2 C 6.13 g/m*3 30.2 C 0 km/h
86 25-04-2010 17:11:02 29.5 C 5.9 g/m*3 29.5 C 0 km/h
87 25-04-2010 17:23:02 27.5 C 5.29 g/m*3 27.5 C 0 km/h
88 25-04-2010 17:35:02 26.4 C 4.98 g/m*3 26.4 C 0 km/h
89 25-04-2010 17:47:02 25.9 C 4.84 g/m*3 25.9 C 0 km/h
90 25-04-2010 17:59:02 25.7 C 4.79 g/m*3 25.7 C 0 km/h
91 25-04-2010 18:11:01 25.6 C 4.76 g/m*3 25.6 C 0 km/h
92 25-04-2010 18:23:01 26 C 4.87 g/m*3 26 C 0 km/h
93 25-04-2010 18:35:02 26.4 C 4.98 g/m*3 26.4 C 0 km/h
94 25-04-2010 18:47:02 26.5 C 5.01 g/m*3 26.5 C 0 km/h
95 25-04-2010 18:59:02 25.3 C 4.68 g/m*3 25.3 C 0 km/h
96 25-04-2010 19:11:01 24.7 C 4.53 g/m*3 24.7 C 0 km/h
97 25-04-2010 19:23:02 24.4 C 4.45 g/m*3 24.4 C 0 km/h
98 25-04-2010 19:35:02 24.1 C 4.38 g/m*3 24.1 C 0 km/h
99 25-04-2010 19:47:02 23.4 C 4.21 g/m*3 23.4 C 0 km/h
100 25-04-2010 19:59:02 22.9 C 4.09 g/m*3 22.9 C 0 km/h
Sensor: Nr:Datum:Temp:Abs-Feuchte:Windchill:Wind:
Aussen-T/F 101 25-04-2010 20:11:01 22.3 C 3.95 g/m*3 22.3 C 0 km/h
102 25-04-2010 20:23:02 21.6 C 3.98 g/m*3 21.6 C 0 km/h
103 25-04-2010 20:35:01 21 C 3.85 g/m*3 21 C 0 km/h
104 25-04-2010 20:47:03 20.5 C 4.09 g/m*3 20.5 C 0 km/h
105 25-04-2010 20:59:03 20.2 C 4.37 g/m*3 20.2 C 0 km/h
106 25-04-2010 21:11:02 19.9 C 4.3 g/m*3 19.9 C 0 km/h
107 25-04-2010 21:23:02 19.5 C 4.36 g/m*3 19.5 C 0 km/h
108 25-04-2010 21:35:02 19.2 C 4.45 g/m*3 19.2 C 0 km/h
109 25-04-2010 21:47:02 19.1 C 4.75 g/m*3 19.1 C 0 km/h
110 25-04-2010 21:59:02 19.1 C 4.59 g/m*3 19.1 C 0 km/h
111 25-04-2010 22:11:02 19 C 4.73 g/m*3 19 C 0 km/h
112 25-04-2010 22:23:02 18.8 C 4.83 g/m*3 18.8 C 0 km/h
113 25-04-2010 22:35:02 18.5 C 5.06 g/m*3 18.5 C 0 km/h
114 25-04-2010 22:47:02 18.5 C 4.9 g/m*3 18.5 C 0 km/h
115 25-04-2010 22:59:02 18 C 5.07 g/m*3 18 C 0 km/h
116 25-04-2010 23:11:02 18.6 C 5.41 g/m*3 18.6 C 0 km/h
117 25-04-2010 23:23:02 18.6 C 5.73 g/m*3 18.6 C 0 km/h
118 25-04-2010 23:35:02 18.2 C 5.75 g/m*3 18.2 C 0 km/h
119 25-04-2010 23:47:02 18 C 5.99 g/m*3 18 C 0 km/h
120 25-04-2010 23:59:02 17.5 C 5.96 g/m*3 17.5 C 0 km/h
121 26-04-2010 00:11:02 17.3 C 6.04 g/m*3 17.3 C 0 km/h
122 26-04-2010 00:23:02 17 C 6.22 g/m*3 17 C 0 km/h
123 26-04-2010 00:35:02 17.2 C 6 g/m*3 17.2 C 0 km/h
124 26-04-2010 00:47:02 17.1 C 5.82 g/m*3 17.1 C 0 km/h
125 26-04-2010 00:59:03 16.9 C 5.75 g/m*3 16.9 C 0 km/h
Sensor: Nr:Datum:Temp:Abs-Feuchte:Windchill:Wind:
Aussen-T/F 126 26-04-2010 01:11:03 16.7 C 5.83 g/m*3 16.7 C 0 km/h
127 26-04-2010 01:23:03 16.4 C 5.86 g/m*3 16.4 C 0 km/h
128 26-04-2010 01:35:03 16.1 C 6.03 g/m*3 16.1 C 0 km/h
129 26-04-2010 01:47:03 15.9 C 6.09 g/m*3 15.9 C 0 km/h
130 26-04-2010 01:59:03 16 C 6.13 g/m*3 16 C 0 km/h
131 26-04-2010 02:11:03 14.6 C 7.38 g/m*3 14.6 C 0 km/h
132 26-04-2010 02:23:03 13.3 C 8.43 g/m*3 13.3 C 0 km/h
133 26-04-2010 02:35:03 13 C 8.96 g/m*3 13 C 0 km/h
134 26-04-2010 02:47:03 12.5 C 9.02 g/m*3 12.5 C 0 km/h
135 26-04-2010 02:59:03 12.7 C 9.24 g/m*3 12.7 C 0 km/h
136 26-04-2010 03:11:03 12.4 C 9.07 g/m*3 12.4 C 0 km/h
137 26-04-2010 03:23:03 12.6 C 9.18 g/m*3 12.6 C 0 km/h
138 26-04-2010 03:35:03 12.7 C 9.13 g/m*3 12.7 C 0 km/h
139 26-04-2010 03:47:03 12.8 C 8.96 g/m*3 12.8 C 0 km/h
140 26-04-2010 03:59:03 12.7 C 8.79 g/m*3 12.7 C 0 km/h
141 26-04-2010 04:11:03 12.4 C 8.63 g/m*3 12.4 C 0 km/h
142 26-04-2010 04:23:03 12.3 C 8.58 g/m*3 12.3 C 0 km/h
143 26-04-2010 04:35:03 12.2 C 8.52 g/m*3 12.2 C 0 km/h
144 26-04-2010 04:47:03 12.2 C 8.52 g/m*3 12.2 C 0 km/h
145 26-04-2010 04:59:04 12.2 C 8.52 g/m*3 12.2 C 0 km/h
146 26-04-2010 05:11:04 11.8 C 8.42 g/m*3 11.8 C 0 km/h
147 26-04-2010 05:23:04 11.6 C 8.42 g/m*3 11.6 C 0 km/h
148 26-04-2010 05:35:04 11.5 C 8.37 g/m*3 11.5 C 0 km/h
149 26-04-2010 05:47:04 11.6 C 8.52 g/m*3 11.6 C 0 km/h
150 26-04-2010 05:59:04 11.2 C 8.31 g/m*3 11.2 C 0 km/h
Sensor: Nr:Datum:Temp:Abs-Feuchte:Windchill:Wind:
Aussen-T/F 151 26-04-2010 06:11:04 11.1 C 8.36 g/m*3 11.1 C 0 km/h
152 26-04-2010 06:23:04 11 C 8.31 g/m*3 11 C 0 km/h
153 26-04-2010 06:35:04 10.8 C 8.2 g/m*3 10.8 C 0 km/h
154 26-04-2010 06:47:01 10.7 C 8.15 g/m*3 10.7 C 0 km/h
155 26-04-2010 06:59:01 10.7 C 8.25 g/m*3 10.7 C 0 km/h
156 26-04-2010 07:11:01 11.1 C 8.36 g/m*3 11.1 C 0 km/h
157 26-04-2010 07:23:02 10.9 C 8.16 g/m*3 10.9 C 0 km/h
158 26-04-2010 07:35:01 10.8 C 8.11 g/m*3 10.8 C 0 km/h
159 26-04-2010 07:47:02 10.7 C 8.15 g/m*3 10.7 C 0 km/h
160 26-04-2010 07:59:02 11.2 C 8.41 g/m*3 11.2 C 0 km/h
161 26-04-2010 08:11:01 11.2 C 8.31 g/m*3 11.2 C 0 km/h
162 26-04-2010 08:23:01 11.5 C 8.47 g/m*3 11.5 C 0 km/h
163 26-04-2010 08:35:02 12 C 8.42 g/m*3 12 C 0 km/h
164 26-04-2010 08:47:01 12.4 C 8.19 g/m*3 12.4 C 0 km/h
165 26-04-2010 08:59:01 12.7 C 7.9 g/m*3 12.7 C 0 km/h
166 26-04-2010 09:11:01 12.4 C 7.32 g/m*3 12.4 C 0 km/h
167 26-04-2010 09:23:01 12.8 C 7.39 g/m*3 12.8 C 0 km/h
168 26-04-2010 09:35:02 13.1 C 7.19 g/m*3 13.1 C 0 km/h
169 26-04-2010 09:47:01 13.2 C 7.12 g/m*3 13.2 C 0 km/h
170 26-04-2010 09:59:01 13.3 C 6.82 g/m*3 13.3 C 0 km/h
171 26-04-2010 10:11:02 13.7 C 7.34 g/m*3 13.7 C 0 km/h
172 26-04-2010 10:23:01 14.3 C 7 g/m*3 14.3 C 0 km/h
173 26-04-2010 10:35:02 14.9 C 7.01 g/m*3 14.9 C 0 km/h
174 26-04-2010 10:47:01 15 C 6.8 g/m*3 15 C 0 km/h
175 26-04-2010 10:59:01 15.2 C 6.75 g/m*3 15.2 C 0 km/h
Sensor: Nr:Datum:Temp:Abs-Feuchte:Windchill:Wind:
Aussen-T/F 176 26-04-2010 11:11:01 15.5 C 6.74 g/m*3 15.5 C 0 km/h
177 26-04-2010 11:23:01 15.8 C 6.87 g/m*3 15.8 C 0 km/h
178 26-04-2010 11:35:02 16 C 6.54 g/m*3 16 C 0 km/h
179 26-04-2010 11:47:01 16.1 C 6.44 g/m*3 16.1 C 0 km/h
180 26-04-2010 11:59:01 16.2 C 6.48 g/m*3 16.2 C 0 km/h
181 26-04-2010 12:11:02 16.5 C 6.46 g/m*3 16.5 C 0 km/h
182 26-04-2010 12:23:01 17.8 C 6.98 g/m*3 17.8 C 0 km/h
183 26-04-2010 12:35:02 18 C 6.14 g/m*3 18 C 0 km/h
184 26-04-2010 12:47:01 17.7 C 6.34 g/m*3 17.7 C 0 km/h
185 26-04-2010 12:59:01 17.7 C 6.49 g/m*3 17.7 C 0 km/h
186 26-04-2010 13:11:02 18.1 C 6.49 g/m*3 18.1 C 0 km/h
187 26-04-2010 13:23:01 19.1 C 6.56 g/m*3 19.1 C 0 km/h
188 26-04-2010 13:35:02 20.2 C 6.29 g/m*3 20.2 C 0 km/h
189 26-04-2010 13:47:01 19.5 C 6.04 g/m*3 19.5 C 0 km/h
190 26-04-2010 13:59:01 18.1 C 6.18 g/m*3 18.1 C 0 km/h
191 26-04-2010 14:11:02 18.3 C 6.41 g/m*3 18.3 C 0 km/h
192 26-04-2010 14:23:01 19.4 C 6.51 g/m*3 19.4 C 0 km/h
193 26-04-2010 14:35:02 20 C 6.05 g/m*3 20 C 0 km/h
194 26-04-2010 14:47:01 20.5 C 6.23 g/m*3 20.5 C 0 km/h
195 26-04-2010 14:59:01 19.1 C 6.07 g/m*3 19.1 C 0 km/h
196 26-04-2010 15:11:02 19.2 C 6.1 g/m*3 19.2 C 0 km/h
197 26-04-2010 15:23:01 19.4 C 6.01 g/m*3 19.4 C 0 km/h
198 26-04-2010 15:35:01 19.5 C 5.87 g/m*3 19.5 C 0 km/h
199 26-04-2010 15:47:01 19.4 C 5.84 g/m*3 19.4 C 0 km/h
200 26-04-2010 15:59:01 18.4 C 5.35 g/m*3 18.4 C 0 km/h
Sensor: Nr:Datum:Temp:Abs-Feuchte:Windchill:Wind:
Aussen-T/F 201 26-04-2010 16:11:02 20.2 C 5.6 g/m*3 20.2 C 0 km/h
202 26-04-2010 16:23:01 19.8 C 5.3 g/m*3 19.8 C 0 km/h
203 26-04-2010 16:35:01 19.3 C 5.31 g/m*3 19.3 C 0 km/h
204 26-04-2010 16:47:01 19.6 C 5.4 g/m*3 19.6 C 0 km/h
205 26-04-2010 16:59:01 19.5 C 5.37 g/m*3 19.5 C 0 km/h
206 26-04-2010 17:11:02 21.2 C 5.37 g/m*3 21.2 C 0 km/h
207 26-04-2010 17:23:01 22.3 C 5.13 g/m*3 22.3 C 0 km/h
208 26-04-2010 17:35:01 21.5 C 5.09 g/m*3 21.5 C 0 km/h
209 26-04-2010 17:47:01 20.1 C 5.04 g/m*3 20.1 C 0 km/h
210 26-04-2010 17:59:01 19.3 C 5.31 g/m*3 19.3 C 0 km/h
211 26-04-2010 18:11:02 19.1 C 5.57 g/m*3 19.1 C 0 km/h
212 26-04-2010 18:23:01 19 C 5.54 g/m*3 19 C 0 km/h
213 26-04-2010 18:35:01 18.9 C 5.51 g/m*3 18.9 C 0 km/h
214 26-04-2010 18:47:01 19.7 C 5.6 g/m*3 19.7 C 0 km/h
215 26-04-2010 18:59:01 20.2 C 5.25 g/m*3 20.2 C 0 km/h
216 26-04-2010 19:11:02 19.5 C 5.37 g/m*3 19.5 C 0 km/h
217 26-04-2010 19:23:01 18.7 C 5.44 g/m*3 18.7 C 0 km/h
218 26-04-2010 19:35:01 18.3 C 5.63 g/m*3 18.3 C 0 km/h
219 26-04-2010 19:47:01 18.2 C 5.44 g/m*3 18.2 C 0 km/h
220 26-04-2010 19:59:01 18.5 C 5.7 g/m*3 18.5 C 0 km/h
221 26-04-2010 20:11:01 18.8 C 5.64 g/m*3 18.8 C 0 km/h
222 26-04-2010 20:23:01 18.1 C 5.56 g/m*3 18.1 C 0 km/h
223 26-04-2010 20:35:01 17.1 C 5.39 g/m*3 17.1 C 0 km/h
224 26-04-2010 20:47:01 16.7 C 5.68 g/m*3 16.7 C 0 km/h
225 26-04-2010 20:59:01 16.2 C 5.52 g/m*3 16.2 C 0 km/h
Sensor: Nr:Datum:Temp:Abs-Feuchte:Windchill:Wind:
Aussen-T/F 226 26-04-2010 21:11:01 16.1 C 5.35 g/m*3 16.1 C 0 km/h
227 26-04-2010 21:23:01 15.9 C 5.55 g/m*3 15.9 C 0 km/h
228 26-04-2010 21:35:01 15.8 C 5.52 g/m*3 15.8 C 0 km/h
229 26-04-2010 21:47:01 15.8 C 5.65 g/m*3 15.8 C 0 km/h
230 26-04-2010 21:59:01 15.7 C 5.62 g/m*3 15.7 C 0 km/h
231 26-04-2010 22:11:02 15.6 C 5.72 g/m*3 15.6 C 0 km/h
232 26-04-2010 22:23:01 15.4 C 5.78 g/m*3 15.4 C 0 km/h
233 26-04-2010 22:35:02 15.4 C 5.65 g/m*3 15.4 C 0 km/h
234 26-04-2010 22:49:05 15.2 C 5.71 g/m*3 15.2 C 0 km/h
235 26-04-2010 23:01:05 15.2 C 5.84 g/m*3 15.2 C 0 km/h
236 26-04-2010 23:13:05 15.1 C 5.81 g/m*3 15.1 C 0 km/h
237 26-04-2010 23:25:05 14.6 C 6.01 g/m*3 14.6 C 0 km/h
238 26-04-2010 23:37:05 14.2 C 5.98 g/m*3 14.2 C 0 km/h
239 26-04-2010 23:49:05 14.1 C 5.95 g/m*3 14.1 C 0 km/h
240 27-04-2010 00:01:05 14 C 6.03 g/m*3 14 C 0 km/h
241 27-04-2010 00:13:05 13.7 C 6.04 g/m*3 13.7 C 0 km/h
242 27-04-2010 00:25:05 13.7 C 6.16 g/m*3 13.7 C 0 km/h
243 27-04-2010 00:37:06 13.5 C 6.08 g/m*3 13.5 C 0 km/h
244 27-04-2010 00:49:06 13.6 C 6.24 g/m*3 13.6 C 0 km/h
245 27-04-2010 01:01:06 13.6 C 6.24 g/m*3 13.6 C 0 km/h
246 27-04-2010 01:13:06 13.4 C 6.16 g/m*3 13.4 C 0 km/h
247 27-04-2010 01:25:06 13.4 C 6.28 g/m*3 13.4 C 0 km/h
248 27-04-2010 01:37:06 13.2 C 6.2 g/m*3 13.2 C 0 km/h
249 27-04-2010 01:49:06 12.9 C 6.31 g/m*3 12.9 C 0 km/h
250 27-04-2010 02:01:06 13 C 6.35 g/m*3 13 C 0 km/h
Sensor: Nr:Datum:Temp:Abs-Feuchte:Windchill:Wind:
Aussen-T/F 251 27-04-2010 02:13:06 13 C 6.46 g/m*3 13 C 0 km/h
252 27-04-2010 02:25:06 12.6 C 6.42 g/m*3 12.6 C 0 km/h
253 27-04-2010 02:37:06 12.4 C 6.45 g/m*3 12.4 C 0 km/h
254 27-04-2010 02:49:06 12 C 6.5 g/m*3 12 C 0 km/h
255 27-04-2010 03:01:06 11.8 C 6.53 g/m*3 11.8 C 0 km/h
256 27-04-2010 03:13:06 11.6 C 6.55 g/m*3 11.6 C 0 km/h
257 27-04-2010 03:25:06 11.2 C 6.49 g/m*3 11.2 C 0 km/h
258 27-04-2010 03:37:06 10.9 C 6.56 g/m*3 10.9 C 0 km/h
259 27-04-2010 03:49:06 10.8 C 6.52 g/m*3 10.8 C 0 km/h
260 27-04-2010 04:01:06 10.8 C 6.62 g/m*3 10.8 C 0 km/h
261 27-04-2010 04:13:06 10.6 C 6.44 g/m*3 10.6 C 0 km/h
262 27-04-2010 04:25:06 10.3 C 6.42 g/m*3 10.3 C 0 km/h
263 27-04-2010 04:37:07 10.1 C 6.52 g/m*3 10.1 C 0 km/h
264 27-04-2010 04:49:07 9.8 C 6.68 g/m*3 9.8 C 0 km/h
265 27-04-2010 05:01:07 9.6 C 6.6 g/m*3 9.6 C 0 km/h
266 27-04-2010 05:13:07 9.4 C 6.6 g/m*3 9.4 C 0 km/h
267 27-04-2010 05:25:07 9.2 C 6.61 g/m*3 9.2 C 0 km/h
268 27-04-2010 05:37:07 9 C 6.52 g/m*3 9 C 0 km/h
269 27-04-2010 05:49:07 8.7 C 6.49 g/m*3 8.7 C 0 km/h
270 27-04-2010 06:01:07 8.8 C 6.61 g/m*3 8.8 C 0 km/h
271 27-04-2010 06:13:07 8.4 C 6.62 g/m*3 8.4 C 0 km/h
272 27-04-2010 06:25:07 8.2 C 6.62 g/m*3 8.2 C 0 km/h
273 27-04-2010 06:37:05 8.1 C 6.57 g/m*3 8.1 C 0 km/h
274 27-04-2010 06:49:01 8.1 C 6.66 g/m*3 8.1 C 0 km/h
275 27-04-2010 07:01:02 8.1 C 6.74 g/m*3 8.1 C 0 km/h
Sensor: Nr:Datum:Temp:Abs-Feuchte:Windchill:Wind:
Aussen-T/F 276 27-04-2010 07:13:02 8.1 C 6.74 g/m*3 8.1 C 0 km/h
277 27-04-2010 07:25:02 8 C 6.7 g/m*3 8 C 0 km/h
278 27-04-2010 07:37:02 8.2 C 6.78 g/m*3 8.2 C 0 km/h
279 27-04-2010 07:49:01 8.6 C 6.96 g/m*3 8.6 C 0 km/h
280 27-04-2010 08:01:02 8.6 C 6.87 g/m*3 8.6 C 0 km/h
281 27-04-2010 08:13:02 8.9 C 6.92 g/m*3 8.9 C 0 km/h
282 27-04-2010 08:25:01 9.2 C 6.88 g/m*3 9.2 C 0 km/h
283 27-04-2010 08:37:02 9.2 C 6.88 g/m*3 9.2 C 0 km/h
284 27-04-2010 08:49:02 9.7 C 7.01 g/m*3 9.7 C 0 km/h
285 27-04-2010 09:01:02 10.1 C 7 g/m*3 10.1 C 0 km/h
286 27-04-2010 09:13:02 10.6 C 7.03 g/m*3 10.6 C 0 km/h
287 27-04-2010 09:25:01 11.1 C 7.05 g/m*3 11.1 C 0 km/h
288 27-04-2010 09:37:02 11.8 C 7.37 g/m*3 11.8 C 0 km/h
289 27-04-2010 09:49:01 12.4 C 7.32 g/m*3 12.4 C 0 km/h
290 27-04-2010 10:01:02 13 C 7.14 g/m*3 13 C 0 km/h
291 27-04-2010 10:13:02 13.6 C 7.06 g/m*3 13.6 C 0 km/h
292 27-04-2010 10:25:02 14.1 C 6.92 g/m*3 14.1 C 0 km/h
293 27-04-2010 10:37:02 14.3 C 6.76 g/m*3 14.3 C 0 km/h
294 27-04-2010 10:49:01 14 C 6.27 g/m*3 14 C 0 km/h
295 27-04-2010 11:01:02 14.6 C 6.51 g/m*3 14.6 C 0 km/h
296 27-04-2010 11:13:02 15.3 C 6.53 g/m*3 15.3 C 0 km/h
297 27-04-2010 11:25:02 16.1 C 6.44 g/m*3 16.1 C 0 km/h
298 27-04-2010 11:37:02 16.9 C 6.62 g/m*3 16.9 C 0 km/h
299 27-04-2010 11:49:01 17.4 C 6.52 g/m*3 17.4 C 0 km/h
300 27-04-2010 12:01:02 18.1 C 6.49 g/m*3 18.1 C 0 km/h
Sensor: Nr:Datum:Temp:Abs-Feuchte:Windchill:Wind:
Aussen-T/F 301 27-04-2010 12:13:02 17.8 C 6.37 g/m*3 17.8 C 0 km/h
302 27-04-2010 12:25:02 18.8 C 6.44 g/m*3 18.8 C 0 km/h
303 27-04-2010 12:37:02 19.3 C 6.14 g/m*3 19.3 C 0 km/h
304 27-04-2010 12:49:01 18.6 C 5.73 g/m*3 18.6 C 0 km/h
305 27-04-2010 13:01:02 19.1 C 5.74 g/m*3 19.1 C 0 km/h
306 27-04-2010 13:13:02 19.7 C 5.94 g/m*3 19.7 C 0 km/h
307 27-04-2010 13:25:02 21 C 5.68 g/m*3 21 C 0 km/h
308 27-04-2010 13:37:01 20.9 C 5.28 g/m*3 20.9 C 0 km/h
309 27-04-2010 13:49:02 21 C 4.95 g/m*3 21 C 0 km/h
310 27-04-2010 14:01:01 21.3 C 4.85 g/m*3 21.3 C 0 km/h
311 27-04-2010 14:13:01 22.1 C 4.88 g/m*3 22.1 C 0 km/h
312 27-04-2010 14:25:02 21.9 C 5.21 g/m*3 21.9 C 0 km/h
313 27-04-2010 14:37:01 21.8 C 4.8 g/m*3 21.8 C 0 km/h
314 27-04-2010 14:49:02 20 C 4.84 g/m*3 20 C 0 km/h
315 27-04-2010 15:01:01 21.5 C 4.9 g/m*3 21.5 C 0 km/h
316 27-04-2010 15:13:01 23.9 C 4.98 g/m*3 23.9 C 0 km/h
317 27-04-2010 15:25:02 22.6 C 4.22 g/m*3 22.6 C 0 km/h
318 27-04-2010 15:37:01 23.2 C 4.78 g/m*3 23.2 C 0 km/h
319 27-04-2010 15:49:03 21.9 C 4.25 g/m*3 21.9 C 0 km/h
320 27-04-2010 16:01:02 22.5 C 4.39 g/m*3 22.5 C 0 km/h
321 27-04-2010 16:13:02 22.6 C 4.02 g/m*3 22.6 C 0 km/h
322 27-04-2010 16:25:02 23.3 C 4.39 g/m*3 23.3 C 0 km/h
323 27-04-2010 16:37:02 23.9 C 4.33 g/m*3 23.9 C 0 km/h
324 27-04-2010 16:49:02 23.7 C 4.28 g/m*3 23.7 C 0 km/h
325 27-04-2010 17:01:02 24.2 C 4.4 g/m*3 24.2 C 0 km/h
Sensor: Nr:Datum:Temp:Abs-Feuchte:Windchill:Wind:
Aussen-T/F 326 27-04-2010 17:13:02 22.7 C 4.24 g/m*3 22.7 C 0 km/h
327 27-04-2010 17:25:02 24 C 4.35 g/m*3 24 C 0 km/h
328 27-04-2010 17:37:02 23.8 C 4.3 g/m*3 23.8 C 0 km/h
329 27-04-2010 17:49:02 23.1 C 4.13 g/m*3 23.1 C 0 km/h
330 27-04-2010 18:01:02 24.2 C 4.4 g/m*3 24.2 C 0 km/h
331 27-04-2010 18:13:02 24.1 C 4.38 g/m*3 24.1 C 0 km/h
332 27-04-2010 18:25:02 23.2 C 4.16 g/m*3 23.2 C 0 km/h
333 27-04-2010 18:37:01 22.4 C 3.97 g/m*3 22.4 C 0 km/h
334 27-04-2010 18:49:02 22.2 C 3.93 g/m*3 22.2 C 0 km/h
335 27-04-2010 19:01:01 21.3 C 3.73 g/m*3 21.3 C 0 km/h
336 27-04-2010 19:13:01 21.3 C 4.1 g/m*3 21.3 C 0 km/h
337 27-04-2010 19:25:02 20.6 C 4.12 g/m*3 20.6 C 0 km/h
338 27-04-2010 19:37:01 20.2 C 4.37 g/m*3 20.2 C 0 km/h
339 27-04-2010 19:49:02 20 C 4.67 g/m*3 20 C 0 km/h
340 27-04-2010 20:01:01 19.7 C 4.92 g/m*3 19.7 C 0 km/h
341 27-04-2010 20:13:01 19.3 C 4.98 g/m*3 19.3 C 0 km/h
342 27-04-2010 20:25:02 18.4 C 5.03 g/m*3 18.4 C 0 km/h
343 27-04-2010 20:37:01 17.5 C 5.22 g/m*3 17.5 C 0 km/h
344 27-04-2010 20:49:02 16.8 C 5 g/m*3 16.8 C 0 km/h
345 27-04-2010 21:01:02 16.3 C 4.99 g/m*3 16.3 C 0 km/h
346 27-04-2010 21:13:02 15.9 C 5.01 g/m*3 15.9 C 0 km/h
347 27-04-2010 21:25:02 15.5 C 5.02 g/m*3 15.5 C 0 km/h
348 27-04-2010 21:37:02 15.2 C 4.93 g/m*3 15.2 C 0 km/h
349 27-04-2010 21:50:02 15.1 C 5.16 g/m*3 15.1 C 0 km/h
350 27-04-2010 22:02:02 14.9 C 5.23 g/m*3 14.9 C 0 km/h
Sensor: Nr:Datum:Temp:Abs-Feuchte:Windchill:Wind:
Aussen-T/F 351 27-04-2010 22:14:02 14.7 C 5.16 g/m*3 14.7 C 0 km/h
352 27-04-2010 22:26:02 14.4 C 5.19 g/m*3 14.4 C 0 km/h
353 27-04-2010 22:38:02 14.2 C 5.13 g/m*3 14.2 C 0 km/h
354 27-04-2010 22:50:02 14 C 5.19 g/m*3 14 C 0 km/h
355 27-04-2010 23:02:03 13.7 C 5.33 g/m*3 13.7 C 0 km/h
356 27-04-2010 23:14:03 13.4 C 5.35 g/m*3 13.4 C 0 km/h
357 27-04-2010 23:26:03 13.1 C 5.36 g/m*3 13.1 C 0 km/h
358 27-04-2010 23:38:03 12.7 C 5.34 g/m*3 12.7 C 0 km/h
359 27-04-2010 23:50:03 12.6 C 5.42 g/m*3 12.6 C 0 km/h

Legende:
   Min
   Max


Maximal/Minimal-Werte vom 25.04.2010 - 27.04.2010

Sensor Min Max Avg
Temp
(Aussen-T/F)
6.2 °C
25-04-2010  06:35:05
30.2 °C
25-04-2010  16:59:03
16.11 °C
Abs-Feuchte
(Aussen-T/F)
3.62 g/m*3
25-04-2010  11:35:02
9.24 g/m*3
26-04-2010  02:59:03
5.71 g/m*3
Windchill
(Aussen-T/F)
6.2 C
25-04-2010  06:35:05
30.2 C
25-04-2010  16:59:03
16.07 C

Die Daten stammen von einer Davis Vantage Pro 2 Wetter-Station und werden unter Linux mit der Software wview2wettercgi und aufbereitet. Alle Angaben erfolgen ohne Gewähr für ihre Vollständigkeit oder Richtigkeit.
Kontakt: Rainer Krienke krienke@uni-koblenz.de . Meine Webseiten an der Uni Koblenz oder privat.
Version: $Revision: 0.78 $